createdAt,value
2022-12-04T00:01:28.584Z,97.00
2022-12-04T00:04:00.329Z,97.10
2022-12-04T00:06:31.108Z,97.10
2022-12-04T00:09:00.767Z,97.10
2022-12-04T00:11:33.521Z,97.50
2022-12-04T00:14:07.165Z,97.20
2022-12-04T00:16:37.918Z,97.20
2022-12-04T00:19:08.069Z,97.20
2022-12-04T00:21:38.374Z,97.30
2022-12-04T00:24:08.789Z,97.30
2022-12-04T00:26:38.712Z,97.30
2022-12-04T00:29:08.788Z,97.70
2022-12-04T00:31:38.750Z,97.40
2022-12-04T00:34:08.742Z,97.40
2022-12-04T00:36:38.844Z,97.40
2022-12-04T00:39:09.135Z,97.40
2022-12-04T00:41:39.122Z,97.40
2022-12-04T00:44:09.049Z,97.40
2022-12-04T00:46:38.897Z,97.40
2022-12-04T00:49:08.888Z,97.40
2022-12-04T00:51:39.298Z,97.50
2022-12-04T00:54:09.252Z,97.50
2022-12-04T00:56:39.218Z,97.50
2022-12-04T00:59:09.133Z,97.40
2022-12-04T01:01:39.070Z,97.40
2022-12-04T01:04:09.173Z,97.40
2022-12-04T01:06:39.132Z,97.40
2022-12-04T01:09:09.216Z,97.30
2022-12-04T01:11:40.306Z,97.20
2022-12-04T01:14:11.005Z,97.20
2022-12-04T01:16:42.298Z,97.10
2022-12-04T01:19:14.092Z,97.10
2022-12-04T01:21:44.221Z,97.00
2022-12-04T01:24:14.191Z,96.90
2022-12-04T01:26:44.244Z,96.90
2022-12-04T01:29:14.259Z,96.90
2022-12-04T01:31:44.268Z,96.80
2022-12-04T01:34:14.265Z,96.80
2022-12-04T01:36:44.280Z,96.70
2022-12-04T01:39:14.247Z,96.60
2022-12-04T01:41:44.216Z,96.50
2022-12-04T01:44:23.529Z,96.50
2022-12-04T01:46:58.595Z,96.30
2022-12-04T01:49:36.175Z,96.30
2022-12-04T01:52:17.888Z,96.30
2022-12-04T01:54:52.236Z,96.20
2022-12-04T01:57:28.395Z,96.20
2022-12-04T02:00:07.206Z,96.20
2022-12-04T02:02:40.331Z,96.20
2022-12-04T02:05:14.745Z,96.00
2022-12-04T02:07:46.733Z,96.00
2022-12-04T02:10:18.905Z,95.90
2022-12-04T02:13:11.240Z,95.90
2022-12-04T02:16:06.299Z,95.70
2022-12-04T02:18:52.201Z,95.50
2022-12-04T02:21:32.816Z,95.30
2022-12-04T02:24:49.678Z,95.20
2022-12-04T02:27:49.200Z,95.00
2022-12-04T02:30:19.157Z,94.90
2022-12-04T02:33:02.990Z,94.80
2022-12-04T02:35:57.440Z,94.70
2022-12-04T02:38:34.623Z,94.70
2022-12-04T02:41:27.417Z,94.60
2022-12-04T02:44:18.885Z,94.60
2022-12-04T02:46:53.187Z,94.50
2022-12-04T02:49:34.063Z,94.50
2022-12-04T02:52:09.016Z,94.40
2022-12-04T02:54:43.399Z,94.40
2022-12-04T02:57:22.199Z,94.30
2022-12-04T02:59:54.525Z,94.20
2022-12-04T03:02:58.120Z,94.10
2022-12-04T03:05:40.575Z,94.00
2022-12-04T03:08:16.603Z,93.80
2022-12-04T03:10:54.844Z,93.40
2022-12-04T03:13:35.875Z,93.20
2022-12-04T03:16:35.905Z,93.10
2022-12-04T03:19:18.324Z,93.10
2022-12-04T03:21:56.618Z,93.00
2022-12-04T03:24:35.103Z,92.80
2022-12-04T03:27:44.077Z,92.50
2022-12-04T03:30:20.782Z,92.30
2022-12-04T03:33:05.521Z,92.30
2022-12-04T03:35:57.772Z,92.10
2022-12-04T03:38:46.959Z,92.00
2022-12-04T03:41:34.440Z,91.90
2022-12-04T03:44:16.735Z,91.80
2022-12-04T03:47:09.665Z,91.80
2022-12-04T03:49:55.697Z,91.70
2022-12-04T03:52:50.889Z,91.60
2022-12-04T03:55:34.390Z,91.20
2022-12-04T03:58:10.014Z,91.30
2022-12-04T04:00:43.645Z,91.30
2022-12-04T04:03:22.093Z,91.10
2022-12-04T04:05:56.279Z,90.80
2022-12-04T04:08:35.490Z,90.60
2022-12-04T04:11:21.919Z,90.60
2022-12-04T04:14:30.411Z,90.30
2022-12-04T04:17:29.074Z,90.30
2022-12-04T04:20:34.307Z,90.20
2022-12-04T04:23:27.403Z,89.00
2022-12-04T04:26:00.121Z,89.50
2022-12-04T04:28:42.283Z,89.60
2022-12-04T04:31:38.707Z,89.30
2022-12-04T04:34:43.417Z,89.20
2022-12-04T04:37:47.226Z,86.60
2022-12-04T04:40:32.271Z,87.70
2022-12-04T04:43:41.057Z,87.60
2022-12-04T04:46:20.953Z,87.00
2022-12-04T04:48:56.571Z,87.60
2022-12-04T04:51:28.368Z,87.30
2022-12-04T04:54:01.256Z,86.80
2022-12-04T04:56:31.289Z,86.60
2022-12-04T04:59:00.967Z,86.60
2022-12-04T05:01:31.240Z,85.80
2022-12-04T05:04:01.012Z,85.90
2022-12-04T05:06:30.527Z,85.50
2022-12-04T05:09:00.378Z,85.50
2022-12-04T05:11:30.138Z,85.60
2022-12-04T05:13:59.771Z,85.50
2022-12-04T05:16:29.592Z,84.70
2022-12-04T05:19:20.472Z,84.80
2022-12-04T05:21:50.446Z,84.80
2022-12-04T05:24:20.389Z,84.40
2022-12-04T05:26:50.331Z,84.50
2022-12-04T05:29:20.489Z,84.40
2022-12-04T05:31:50.452Z,83.90
2022-12-04T05:34:20.448Z,84.20
2022-12-04T05:36:50.393Z,84.50
2022-12-04T05:39:20.799Z,84.50
2022-12-04T05:41:50.840Z,84.40
2022-12-04T05:44:20.685Z,84.40
2022-12-04T05:46:51.530Z,84.40
2022-12-04T05:49:21.531Z,84.00
2022-12-04T05:51:53.075Z,83.80
2022-12-04T05:54:23.048Z,83.90
2022-12-04T05:56:52.923Z,83.90
2022-12-04T05:59:22.533Z,83.90
2022-12-04T06:01:52.175Z,84.00
2022-12-04T06:04:21.897Z,83.70
2022-12-04T06:06:51.812Z,83.70
2022-12-04T06:09:21.531Z,83.80
2022-12-04T06:11:51.171Z,83.90
2022-12-04T06:14:20.882Z,84.10
2022-12-04T06:16:50.591Z,84.10
2022-12-04T06:19:23.631Z,84.60
2022-12-04T06:21:56.077Z,84.70
2022-12-04T06:24:27.075Z,84.80
2022-12-04T06:29:51.442Z,84.40
2022-12-04T06:32:22.166Z,84.30
2022-12-04T06:34:56.850Z,84.40
2022-12-04T06:37:27.572Z,84.20
2022-12-04T06:39:57.756Z,83.90
2022-12-04T06:42:27.997Z,83.90
2022-12-04T06:44:57.895Z,84.10
2022-12-04T06:47:28.080Z,84.30
2022-12-04T06:49:58.330Z,84.40
2022-12-04T06:52:28.470Z,84.30
2022-12-04T06:54:58.388Z,84.40
2022-12-04T06:57:28.005Z,84.40
2022-12-04T06:59:57.978Z,84.40
2022-12-04T07:02:27.906Z,84.40
2022-12-04T07:04:58.800Z,84.60
2022-12-04T07:07:28.471Z,84.90
2022-12-04T07:09:58.379Z,85.00
2022-12-04T07:12:28.208Z,85.20
2022-12-04T07:14:57.839Z,85.60
2022-12-04T07:17:27.462Z,85.60
2022-12-04T07:19:58.184Z,85.60
2022-12-04T07:22:28.744Z,85.50
2022-12-04T07:24:58.390Z,85.50
2022-12-04T07:27:28.004Z,85.60
2022-12-04T07:29:58.110Z,85.60
2022-12-04T07:32:27.860Z,85.40
2022-12-04T07:34:57.452Z,85.40
2022-12-04T07:37:27.054Z,85.40
2022-12-04T07:39:56.987Z,85.10
2022-12-04T07:42:26.929Z,84.40
2022-12-04T07:44:56.545Z,84.30
2022-12-04T07:47:26.231Z,83.70
2022-12-04T07:49:56.098Z,83.80
2022-12-04T07:52:25.843Z,83.50
2022-12-04T07:54:55.494Z,83.50
2022-12-04T07:57:25.416Z,83.40
2022-12-04T07:59:55.723Z,83.40
2022-12-04T08:02:26.013Z,83.50
2022-12-04T08:04:56.062Z,83.40
2022-12-04T08:07:26.035Z,83.00
2022-12-04T08:09:56.271Z,82.70
2022-12-04T08:12:26.588Z,82.00
2022-12-04T08:14:56.546Z,82.00
2022-12-04T08:17:26.677Z,81.60
2022-12-04T08:19:57.439Z,81.10
2022-12-04T08:22:28.524Z,81.20
2022-12-04T08:24:58.129Z,81.00
2022-12-04T08:27:27.787Z,80.50
2022-12-04T08:29:57.648Z,80.40
2022-12-04T08:32:27.667Z,80.30
2022-12-04T08:34:57.232Z,80.00
2022-12-04T08:37:29.279Z,79.70
2022-12-04T08:40:00.096Z,80.00
2022-12-04T08:42:29.866Z,79.70
2022-12-04T08:44:59.488Z,79.70
2022-12-04T08:47:29.122Z,78.90
2022-12-04T08:49:58.746Z,79.20
2022-12-04T08:52:28.364Z,79.10
2022-12-04T08:54:57.982Z,78.80
2022-12-04T08:57:28.021Z,78.70
2022-12-04T08:59:58.204Z,78.40
2022-12-04T09:02:28.341Z,78.50
2022-12-04T09:04:58.363Z,78.50
2022-12-04T09:07:28.378Z,77.80
2022-12-04T09:09:58.738Z,77.90
2022-12-04T09:12:28.893Z,77.90
2022-12-04T09:14:58.862Z,78.00
2022-12-04T09:17:28.745Z,77.80
2022-12-04T09:20:01.259Z,77.40
2022-12-04T09:22:51.401Z,77.90
2022-12-04T09:25:21.477Z,77.70
2022-12-04T09:27:51.056Z,77.50
2022-12-04T09:30:20.777Z,77.20
2022-12-04T09:32:50.808Z,77.40
2022-12-04T09:35:20.579Z,77.10
2022-12-04T09:37:50.220Z,77.00
2022-12-04T09:40:48.322Z,77.10
2022-12-04T09:43:36.270Z,77.20
2022-12-04T09:46:13.959Z,77.30
2022-12-04T09:48:45.936Z,77.40
2022-12-04T09:51:20.686Z,77.40
2022-12-04T09:54:01.466Z,77.60
2022-12-04T09:56:33.352Z,77.60
2022-12-04T09:59:14.031Z,77.50
2022-12-04T10:01:51.248Z,77.50
2022-12-04T10:04:22.145Z,77.40
2022-12-04T10:07:09.674Z,77.60
2022-12-04T10:09:58.288Z,77.90
2022-12-04T10:12:54.888Z,77.90
2022-12-04T10:15:51.701Z,77.90
2022-12-04T10:19:00.016Z,77.90
2022-12-04T10:21:59.038Z,77.80
2022-12-04T10:24:54.605Z,78.00
2022-12-04T10:27:36.620Z,78.10
2022-12-04T10:30:28.172Z,78.30
2022-12-04T10:33:20.160Z,78.30
2022-12-04T10:35:54.416Z,78.60
2022-12-04T10:38:53.235Z,78.90
2022-12-04T10:41:47.807Z,79.20
2022-12-04T10:44:21.980Z,79.60
2022-12-04T10:46:54.489Z,79.80
2022-12-04T10:49:28.087Z,80.00
2022-12-04T10:51:58.375Z,80.10
2022-12-04T10:54:53.313Z,80.30
2022-12-04T10:57:23.283Z,80.50
2022-12-04T10:59:57.236Z,80.80
2022-12-04T11:02:37.259Z,81.00
2022-12-04T11:05:24.718Z,81.30
2022-12-04T11:07:56.417Z,81.60
2022-12-04T11:10:46.276Z,82.00
2022-12-04T11:13:20.098Z,82.40
2022-12-04T11:15:56.732Z,82.50
2022-12-04T11:18:30.739Z,82.80
2022-12-04T11:21:06.592Z,83.10
2022-12-04T11:23:49.459Z,83.40
2022-12-04T11:26:38.279Z,83.80
2022-12-04T11:29:09.619Z,84.00
2022-12-04T11:31:39.581Z,84.40
2022-12-04T11:34:20.178Z,84.60
2022-12-04T11:36:56.616Z,84.90
2022-12-04T11:39:42.126Z,85.20
2022-12-04T11:42:28.293Z,85.60
2022-12-04T11:45:25.186Z,86.10
2022-12-04T11:48:01.065Z,86.20
2022-12-04T11:51:01.797Z,86.60
2022-12-04T11:54:10.563Z,86.80
2022-12-04T11:57:03.843Z,87.10
2022-12-04T11:59:59.126Z,87.30
2022-12-04T12:03:02.062Z,87.60
2022-12-04T12:06:04.552Z,87.70
2022-12-04T12:09:13.250Z,88.00
2022-12-04T12:12:05.917Z,88.30
2022-12-04T12:15:02.392Z,88.60
2022-12-04T12:17:49.119Z,88.80
2022-12-04T12:20:39.286Z,88.70
2022-12-04T12:23:28.078Z,89.20
2022-12-04T12:26:15.969Z,89.40
2022-12-04T12:29:17.862Z,89.50
2022-12-04T12:32:02.060Z,89.80
2022-12-04T12:34:42.363Z,89.70
2022-12-04T12:37:51.161Z,90.00
2022-12-04T12:40:44.959Z,90.10
2022-12-04T12:43:35.971Z,90.30
2022-12-04T12:46:40.365Z,90.40
2022-12-04T12:49:49.176Z,90.50
2022-12-04T12:52:42.499Z,90.60
2022-12-04T12:55:28.119Z,90.50
2022-12-04T12:58:11.671Z,90.70
2022-12-04T13:00:51.552Z,90.70
2022-12-04T13:03:48.437Z,90.70
2022-12-04T13:06:23.995Z,90.70
2022-12-04T13:09:23.457Z,90.80
2022-12-04T13:11:56.144Z,90.90
2022-12-04T13:14:25.729Z,90.90
2022-12-04T13:17:00.966Z,91.00
2022-12-04T13:19:43.313Z,91.00
2022-12-04T13:22:52.110Z,91.10
2022-12-04T13:25:46.485Z,91.20
2022-12-04T13:28:43.081Z,91.20
2022-12-04T13:31:51.048Z,91.30
2022-12-04T13:34:56.718Z,91.40
2022-12-04T13:37:53.629Z,91.40
2022-12-04T13:40:40.478Z,91.50
2022-12-04T13:43:30.983Z,91.50
2022-12-04T13:46:07.901Z,91.60
2022-12-04T13:48:42.509Z,91.60
2022-12-04T13:51:39.622Z,91.60
2022-12-04T13:54:30.294Z,91.70
2022-12-04T13:57:23.790Z,91.70
2022-12-04T14:00:06.963Z,91.70
2022-12-04T14:02:39.882Z,91.80
2022-12-04T14:05:16.377Z,91.90
2022-12-04T14:08:07.294Z,91.80
2022-12-04T14:10:40.863Z,92.00
2022-12-04T14:13:27.011Z,92.00
2022-12-04T14:16:10.948Z,92.10
2022-12-04T14:18:41.154Z,92.10
2022-12-04T14:21:11.334Z,92.10
2022-12-04T14:23:44.450Z,92.10
2022-12-04T14:27:03.685Z,92.20
2022-12-04T14:29:48.199Z,92.20
2022-12-04T14:32:32.914Z,92.30
2022-12-04T14:35:03.544Z,92.30
2022-12-04T14:37:38.531Z,92.40
2022-12-04T14:40:18.395Z,92.40
2022-12-04T14:42:50.428Z,92.40
2022-12-04T14:45:46.226Z,92.50
2022-12-04T14:48:45.445Z,92.50
2022-12-04T14:51:54.179Z,92.50
2022-12-04T14:54:55.534Z,92.60
2022-12-04T14:57:36.802Z,92.70
2022-12-04T15:00:07.778Z,92.70
2022-12-04T15:02:43.625Z,92.70
2022-12-04T15:05:18.034Z,92.70
2022-12-04T15:07:53.344Z,92.80
2022-12-04T15:10:46.222Z,92.80
2022-12-04T15:13:26.911Z,92.80
2022-12-04T15:15:56.724Z,92.90
2022-12-04T15:18:26.794Z,92.90
2022-12-04T15:21:01.696Z,92.90
2022-12-04T15:23:42.069Z,92.90
2022-12-04T15:26:22.797Z,93.00
2022-12-04T15:29:02.138Z,93.00
2022-12-04T15:31:39.934Z,93.10
2022-12-04T15:34:17.527Z,93.00
2022-12-04T15:37:01.108Z,93.10
2022-12-04T15:39:32.170Z,93.10
2022-12-04T15:42:26.785Z,93.20
2022-12-04T15:45:03.020Z,93.20
2022-12-04T15:47:38.804Z,93.30
2022-12-04T15:50:29.470Z,93.20
2022-12-04T15:53:17.055Z,93.40
2022-12-04T15:55:55.991Z,93.30
2022-12-04T15:58:31.401Z,93.30
2022-12-04T16:01:10.736Z,93.40
2022-12-04T16:03:57.834Z,93.50
2022-12-04T16:06:30.469Z,93.40
2022-12-04T16:09:20.875Z,93.40
2022-12-04T16:12:00.397Z,93.40
2022-12-04T16:14:30.174Z,93.50
2022-12-04T16:17:06.264Z,93.50
2022-12-04T16:19:38.989Z,93.50
2022-12-04T16:22:28.850Z,93.60
2022-12-04T16:24:58.941Z,93.70
2022-12-04T16:27:28.761Z,93.60
2022-12-04T16:29:58.425Z,93.70
2022-12-04T16:32:33.596Z,93.70
2022-12-04T16:35:03.948Z,93.70
2022-12-04T16:37:34.080Z,93.80
2022-12-04T16:40:08.090Z,93.80
2022-12-04T16:42:37.642Z,94.00
2022-12-04T16:45:25.048Z,94.00
2022-12-04T16:47:54.850Z,94.30
2022-12-04T16:50:25.719Z,94.10
2022-12-04T16:52:55.745Z,94.10
2022-12-04T16:55:39.509Z,94.00
2022-12-04T16:58:09.958Z,94.00
2022-12-04T17:00:40.871Z,94.00
2022-12-04T17:03:12.617Z,94.10
2022-12-04T17:05:42.228Z,94.20
2022-12-04T17:08:11.971Z,94.20
2022-12-04T17:10:41.559Z,94.20
2022-12-04T17:13:11.151Z,94.30
2022-12-04T17:15:40.787Z,94.40
2022-12-04T17:18:13.032Z,94.40
2022-12-04T17:20:45.998Z,94.50
2022-12-04T17:23:15.774Z,94.60
2022-12-04T17:25:45.421Z,94.60
2022-12-04T17:28:15.113Z,94.70
2022-12-04T17:30:48.006Z,94.70
2022-12-04T17:33:17.943Z,94.70
2022-12-04T17:35:48.343Z,94.70
2022-12-04T17:38:18.094Z,94.70
2022-12-04T17:40:47.800Z,94.80
2022-12-04T17:43:21.933Z,94.80
2022-12-04T17:45:51.855Z,94.80
2022-12-04T17:48:21.593Z,94.80
2022-12-04T17:50:51.347Z,94.80
2022-12-04T17:53:21.013Z,94.80
2022-12-04T17:55:51.110Z,94.70
2022-12-04T17:58:20.723Z,94.80
2022-12-04T18:00:50.400Z,94.80
2022-12-04T18:03:20.016Z,94.90
2022-12-04T18:05:49.519Z,94.90
2022-12-04T18:08:19.370Z,95.00
2022-12-04T18:10:48.968Z,95.10
2022-12-04T18:13:18.576Z,95.10
2022-12-04T18:15:48.207Z,95.10
2022-12-04T18:18:17.732Z,95.20
2022-12-04T18:20:47.267Z,95.30
2022-12-04T18:23:16.948Z,95.30
2022-12-04T18:25:57.686Z,95.30
2022-12-04T18:28:27.840Z,95.40
2022-12-04T18:30:57.483Z,95.40
2022-12-04T18:33:27.634Z,95.40
2022-12-04T18:35:58.635Z,95.40
2022-12-04T18:38:30.107Z,95.40
2022-12-04T18:41:04.988Z,95.40
2022-12-04T18:43:39.404Z,95.50
2022-12-04T18:46:12.308Z,95.50
2022-12-04T18:48:42.956Z,95.40
2022-12-04T18:51:36.564Z,95.50
2022-12-04T18:54:26.820Z,95.50
2022-12-04T18:56:56.437Z,95.50
2022-12-04T18:59:28.757Z,95.60
2022-12-04T19:01:58.485Z,95.60
2022-12-04T19:04:28.984Z,95.60
2022-12-04T19:06:58.803Z,95.70
2022-12-04T19:12:20.305Z,95.70
2022-12-04T19:14:49.863Z,95.70
2022-12-04T19:17:19.474Z,95.80
2022-12-04T19:19:49.307Z,95.80
2022-12-04T19:22:19.016Z,95.80
2022-12-04T19:24:49.417Z,95.80
2022-12-04T19:27:19.178Z,96.10
2022-12-04T19:29:49.889Z,96.00
2022-12-04T19:32:19.580Z,95.90
2022-12-04T19:34:51.110Z,95.90
2022-12-04T19:37:21.521Z,95.90
2022-12-04T19:39:51.523Z,96.00
2022-12-04T19:42:21.076Z,96.10
2022-12-04T19:44:51.073Z,96.10
2022-12-04T19:47:21.369Z,96.00
2022-12-04T19:49:51.117Z,96.10
2022-12-04T19:52:20.846Z,96.10
2022-12-04T19:54:50.458Z,96.10
2022-12-04T19:57:20.082Z,96.10
2022-12-04T19:59:49.627Z,96.20
2022-12-04T20:02:20.595Z,96.10
2022-12-04T20:04:50.180Z,96.20
2022-12-04T20:07:20.335Z,96.20
2022-12-04T20:09:52.452Z,96.20
2022-12-04T20:12:22.411Z,96.20
2022-12-04T20:14:52.064Z,96.20
2022-12-04T20:17:21.661Z,96.20
2022-12-04T20:19:51.471Z,96.30
2022-12-04T20:22:21.442Z,96.30
2022-12-04T20:24:51.060Z,96.40
2022-12-04T20:27:20.671Z,96.40
2022-12-04T20:29:50.340Z,96.40
2022-12-04T20:32:19.849Z,96.40
2022-12-04T20:34:49.496Z,96.30
2022-12-04T20:37:19.192Z,96.30
2022-12-04T20:39:49.560Z,96.40
2022-12-04T20:42:20.186Z,96.40
2022-12-04T20:44:49.775Z,96.50
2022-12-04T20:47:19.535Z,96.50
2022-12-04T20:49:49.240Z,96.50
2022-12-04T20:52:18.887Z,96.50
2022-12-04T20:54:48.554Z,96.50
2022-12-04T20:57:18.250Z,96.50
2022-12-04T20:59:47.844Z,96.50
2022-12-04T21:02:17.538Z,96.50
2022-12-04T21:04:47.280Z,96.60
2022-12-04T21:07:16.992Z,96.50
2022-12-04T21:09:46.545Z,96.60
2022-12-04T21:12:39.959Z,96.60
2022-12-04T21:15:32.425Z,96.60
2022-12-04T21:18:03.731Z,96.60
2022-12-04T21:20:33.366Z,96.60
2022-12-04T21:23:03.022Z,96.60
2022-12-04T21:25:32.681Z,96.70
2022-12-04T21:28:02.210Z,96.70
2022-12-04T21:30:31.888Z,96.70
2022-12-04T21:33:01.577Z,96.70
2022-12-04T21:35:31.175Z,96.70
2022-12-04T21:38:00.706Z,96.80
2022-12-04T21:40:31.066Z,96.80
2022-12-04T21:43:00.935Z,96.80
2022-12-04T21:45:30.462Z,96.80
2022-12-04T21:48:00.364Z,96.80
2022-12-04T21:50:29.957Z,96.80
2022-12-04T21:52:59.568Z,96.80
2022-12-04T21:55:29.142Z,96.90
2022-12-04T21:57:58.727Z,96.80
2022-12-04T22:00:28.379Z,96.90
2022-12-04T22:02:58.111Z,96.90
2022-12-04T22:05:27.628Z,96.90
2022-12-04T22:07:57.259Z,96.90
2022-12-04T22:10:27.147Z,96.90
2022-12-04T22:12:56.644Z,96.90
2022-12-04T22:15:26.288Z,96.90
2022-12-04T22:17:56.029Z,96.90
2022-12-04T22:20:25.540Z,96.90
2022-12-04T22:22:55.076Z,96.90
2022-12-04T22:25:24.719Z,97.00
2022-12-04T22:27:55.868Z,97.00
2022-12-04T22:30:26.497Z,96.90
2022-12-04T22:32:56.722Z,96.90
2022-12-04T22:35:26.383Z,96.90
2022-12-04T22:37:56.085Z,96.90
2022-12-04T22:40:25.653Z,97.00
2022-12-04T22:42:56.373Z,97.10
2022-12-04T22:45:26.208Z,97.00
2022-12-04T22:47:55.763Z,97.00
2022-12-04T22:50:25.414Z,97.00
2022-12-04T22:52:54.985Z,97.00
2022-12-04T22:55:24.568Z,97.00
2022-12-04T22:57:54.230Z,97.00
2022-12-04T23:00:24.161Z,97.10
2022-12-04T23:02:53.855Z,97.00
2022-12-04T23:05:23.543Z,97.10
2022-12-04T23:07:53.226Z,97.00
2022-12-04T23:10:22.879Z,97.00
2022-12-04T23:12:52.503Z,97.00
2022-12-04T23:15:22.082Z,97.10
2022-12-04T23:17:51.689Z,97.00
2022-12-04T23:20:21.459Z,97.10
2022-12-04T23:22:56.385Z,97.10
2022-12-04T23:25:25.998Z,97.10
2022-12-04T23:27:56.225Z,97.10
2022-12-04T23:30:28.509Z,97.10
2022-12-04T23:33:00.242Z,97.20
2022-12-04T23:35:29.835Z,97.20
2022-12-04T23:37:59.452Z,97.20
2022-12-04T23:40:29.208Z,97.20
2022-12-04T23:42:59.519Z,97.20
2022-12-04T23:45:29.421Z,97.20
2022-12-04T23:47:59.082Z,97.20
2022-12-04T23:50:28.688Z,97.20
2022-12-04T23:52:58.348Z,97.30
2022-12-04T23:55:33.805Z,97.30
2022-12-04T23:58:04.701Z,97.30
